createdAt,value
2019-04-03T00:02:56.686Z,5.93
2019-04-03T00:08:01.737Z,7.50
2019-04-03T00:13:06.808Z,7.90
2019-04-03T00:18:12.014Z,6.67
2019-04-03T00:23:17.226Z,5.87
2019-04-03T00:28:24.268Z,6.97
2019-04-03T00:33:30.141Z,6.47
2019-04-03T00:38:35.587Z,5.97
2019-04-03T00:43:40.360Z,8.17
2019-04-03T00:48:45.523Z,6.97
2019-04-03T00:53:50.486Z,5.87
2019-04-03T00:58:55.950Z,5.20
2019-04-03T01:04:00.989Z,10.30
2019-04-03T01:09:07.244Z,5.80
2019-04-03T01:14:12.573Z,8.57
2019-04-03T01:19:17.325Z,6.70
2019-04-03T01:24:22.309Z,5.33
2019-04-03T01:29:28.360Z,4.33
2019-04-03T01:34:33.884Z,5.57
2019-04-03T01:39:39.087Z,5.77
2019-04-03T01:44:44.365Z,8.30
2019-04-03T01:49:49.743Z,9.30
2019-04-03T01:54:54.672Z,5.80
2019-04-03T01:59:59.606Z,8.03
2019-04-03T02:05:05.078Z,5.40
2019-04-03T02:10:17.302Z,5.43
2019-04-03T02:15:22.296Z,7.93
2019-04-03T02:20:27.632Z,6.67
2019-04-03T02:25:32.615Z,6.30
2019-04-03T02:30:37.519Z,6.60
2019-04-03T02:35:41.092Z,7.50
2019-04-03T02:40:44.613Z,7.67
2019-04-03T02:45:48.284Z,8.60
2019-04-03T02:50:52.158Z,8.23
2019-04-03T02:55:55.674Z,9.53
2019-04-03T03:00:59.449Z,7.67
2019-04-03T03:06:04.596Z,7.70
2019-04-03T03:11:10.210Z,8.77
2019-04-03T03:16:18.125Z,9.60
2019-04-03T03:21:21.879Z,8.50
2019-04-03T03:26:26.519Z,9.70
2019-04-03T03:31:59.853Z,10.53
2019-04-03T03:36:39.334Z,10.83
2019-04-03T03:41:44.047Z,9.47
2019-04-03T03:46:48.673Z,8.10
2019-04-03T03:51:54.922Z,12.77
2019-04-03T03:57:03.927Z,10.43
2019-04-03T04:02:06.790Z,10.40
2019-04-03T04:07:11.875Z,11.30
2019-04-03T04:12:16.963Z,9.97
2019-04-03T04:17:21.873Z,9.27
2019-04-03T04:22:28.272Z,10.20
2019-04-03T04:27:37.899Z,13.97
2019-04-03T04:32:40.788Z,9.10
2019-04-03T04:37:47.092Z,9.27
2019-04-03T04:42:52.524Z,9.07
2019-04-03T04:47:57.764Z,11.67
2019-04-03T04:53:04.212Z,10.73
2019-04-03T04:58:09.663Z,9.10
2019-04-03T05:03:16.564Z,9.43
2019-04-03T05:08:22.633Z,10.53
2019-04-03T05:13:28.408Z,8.83
2019-04-03T05:18:33.683Z,9.67
2019-04-03T05:23:39.239Z,10.03
2019-04-03T05:28:55.751Z,9.43
2019-04-03T05:33:52.767Z,11.17
2019-04-03T05:38:58.911Z,12.57
2019-04-03T05:44:04.815Z,12.57
2019-04-03T05:49:11.007Z,12.63
2019-04-03T05:54:16.275Z,13.60
2019-04-03T05:59:21.808Z,12.80
2019-04-03T06:04:26.981Z,12.43
2019-04-03T06:09:32.221Z,17.37
2019-04-03T06:14:37.352Z,10.50
2019-04-03T06:19:42.439Z,6.93
2019-04-03T06:24:47.539Z,10.97
2019-04-03T06:29:55.027Z,6.00
2019-04-03T06:35:00.517Z,7.30
2019-04-03T06:40:07.004Z,6.17
2019-04-03T06:45:15.388Z,5.60
2019-04-03T06:50:20.285Z,6.67
2019-04-03T06:55:25.955Z,4.20
2019-04-03T07:00:31.037Z,7.63
2019-04-03T07:05:35.988Z,7.10
2019-04-03T07:10:41.165Z,7.10
2019-04-03T07:15:46.733Z,5.03
2019-04-03T07:20:52.733Z,6.00
2019-04-03T07:25:58.382Z,6.20
2019-04-03T07:31:04.403Z,5.07
2019-04-03T07:36:10.802Z,4.57
2019-04-03T07:41:15.118Z,5.47
2019-04-03T07:46:19.735Z,6.57
2019-04-03T07:51:24.117Z,5.43
2019-04-03T07:56:29.985Z,5.17
2019-04-03T08:01:34.222Z,6.13
2019-04-03T08:06:39.722Z,8.47
2019-04-03T08:11:44.316Z,7.83
2019-04-03T08:16:49.751Z,6.30
2019-04-03T08:21:55.265Z,6.63
2019-04-03T08:27:00.793Z,6.43
2019-04-03T08:32:06.501Z,8.57
2019-04-03T08:37:12.914Z,8.47
2019-04-03T08:42:19.164Z,7.87
2019-04-03T08:47:25.316Z,9.67
2019-04-03T08:52:30.867Z,9.40
2019-04-03T08:57:36.470Z,10.93
2019-04-03T09:02:43.477Z,10.93
2019-04-03T09:07:49.212Z,2.80
2019-04-03T09:12:54.479Z,3.47
2019-04-03T09:17:59.748Z,2.30
2019-04-03T09:23:17.010Z,2.70
2019-04-03T09:28:21.891Z,2.00
2019-04-03T09:33:29.377Z,1.93
2019-04-03T09:38:36.335Z,3.40
2019-04-03T09:43:42.201Z,1.67
2019-04-03T09:48:48.520Z,3.43
2019-04-03T09:53:54.102Z,2.27
2019-04-03T09:58:59.945Z,2.13
2019-04-03T10:04:05.716Z,3.17
2019-04-03T10:09:12.029Z,2.70
2019-04-03T10:14:18.102Z,2.23
2019-04-03T10:19:23.830Z,1.43
2019-04-03T10:24:30.863Z,1.27
2019-04-03T10:29:35.893Z,1.30
2019-04-03T10:34:41.461Z,1.77
2019-04-03T10:39:46.498Z,2.83
2019-04-03T10:44:52.685Z,1.30
2019-04-03T10:49:58.577Z,1.30
2019-04-03T10:55:04.800Z,1.83
2019-04-03T11:00:13.306Z,1.83
2019-04-03T11:05:20.516Z,1.60
2019-04-03T11:10:26.190Z,1.57
2019-04-03T11:15:31.459Z,1.40
2019-04-03T11:20:37.127Z,6.60
2019-04-03T11:25:45.776Z,2.20
2019-04-03T11:30:49.623Z,3.73
2019-04-03T11:35:54.810Z,1.40
2019-04-03T11:41:11.359Z,1.30
2019-04-03T11:46:06.552Z,1.70
2019-04-03T11:51:10.949Z,1.20
2019-04-03T11:56:16.416Z,1.57
2019-04-03T12:01:20.319Z,1.50
2019-04-03T12:06:25.256Z,1.47
2019-04-03T12:11:29.993Z,1.30
2019-04-03T12:16:33.713Z,1.57
2019-04-03T12:21:38.084Z,1.93
2019-04-03T12:26:43.588Z,2.63
2019-04-03T12:31:49.294Z,1.47
2019-04-03T12:36:53.668Z,1.50
2019-04-03T12:41:58.300Z,4.03
2019-04-03T12:47:05.082Z,1.10
2019-04-03T12:52:09.245Z,1.60
2019-04-03T12:57:13.598Z,1.90
2019-04-03T13:02:19.063Z,1.57
2019-04-03T13:07:25.074Z,2.13
2019-04-03T13:12:30.432Z,1.60
2019-04-03T13:17:35.939Z,1.63
2019-04-03T13:22:42.569Z,1.93
2019-04-03T13:27:49.716Z,2.13
2019-04-03T13:32:59.574Z,1.90
2019-04-03T13:38:02.698Z,1.50
2019-04-03T13:43:07.687Z,1.80
2019-04-03T13:48:13.878Z,2.10
2019-04-03T13:53:20.964Z,1.50
2019-04-03T13:58:28.494Z,2.10
2019-04-03T14:03:33.568Z,2.10
2019-04-03T14:08:39.119Z,3.70
2019-04-03T14:13:44.433Z,1.80
2019-04-03T14:18:51.222Z,2.00
2019-04-03T14:23:56.855Z,1.97
2019-04-03T14:29:02.414Z,2.17
2019-04-03T14:34:08.995Z,1.83
2019-04-03T14:39:14.490Z,1.80
2019-04-03T14:44:20.616Z,1.83
2019-04-03T14:49:30.835Z,2.00
2019-04-03T14:54:34.551Z,2.90
2019-04-03T14:59:39.723Z,3.00
2019-04-03T15:04:45.385Z,6.40
2019-04-03T15:09:50.421Z,6.43
2019-04-03T15:14:56.018Z,2.33
2019-04-03T15:20:01.397Z,2.67
2019-04-03T15:25:07.977Z,2.67
2019-04-03T15:30:14.495Z,3.57
2019-04-03T15:35:19.946Z,3.93
2019-04-03T15:40:26.394Z,5.20
2019-04-03T15:45:32.434Z,3.13
2019-04-03T15:50:39.082Z,2.60
2019-04-03T15:55:44.720Z,1.20
2019-04-03T16:00:50.640Z,2.07
2019-04-03T16:05:56.466Z,2.33
2019-04-03T16:11:05.964Z,2.00
2019-04-03T16:16:11.566Z,2.20
2019-04-03T16:21:16.667Z,2.30
2019-04-03T16:26:23.868Z,2.00
2019-04-03T16:36:56.648Z,3.53
2019-04-03T16:42:02.475Z,2.60
2019-04-03T16:47:08.402Z,3.80
2019-04-03T16:52:14.521Z,4.23
2019-04-03T16:57:22.567Z,6.60
2019-04-03T17:02:29.111Z,6.10
2019-04-03T17:07:37.435Z,5.70
2019-04-03T17:12:45.206Z,4.87
2019-04-03T17:17:50.015Z,2.93
2019-04-03T17:22:55.816Z,4.83
2019-04-03T17:28:07.385Z,3.83
2019-04-03T17:33:10.930Z,4.63
2019-04-03T17:38:16.402Z,4.50
2019-04-03T17:43:24.996Z,6.80
2019-04-03T17:48:30.066Z,4.60
2019-04-03T17:53:44.384Z,3.60
2019-04-03T18:04:04.671Z,11.90
2019-04-03T18:09:10.369Z,9.40
2019-04-03T18:14:15.954Z,8.83
2019-04-03T18:19:21.370Z,4.80
2019-04-03T18:24:33.800Z,4.53
2019-04-03T18:29:39.521Z,4.37
2019-04-03T18:34:48.406Z,4.10
2019-04-03T18:39:52.459Z,5.57
2019-04-03T18:44:57.841Z,3.27
2019-04-03T18:50:10.410Z,4.50
2019-04-03T18:55:15.974Z,4.90
2019-04-03T19:00:30.729Z,4.73
2019-04-03T19:05:36.546Z,6.13
2019-04-03T19:11:01.519Z,5.87
2019-04-03T19:16:02.009Z,3.77
2019-04-03T19:21:05.377Z,5.83
2019-04-03T19:26:19.159Z,3.80
2019-04-03T19:31:23.388Z,5.03
2019-04-03T19:36:29.657Z,6.00
2019-04-03T19:41:32.599Z,3.03
2019-04-03T19:46:36.632Z,3.37
2019-04-03T19:51:41.193Z,5.43
2019-04-03T19:56:51.300Z,2.00
2019-04-03T20:02:05.765Z,2.37
2019-04-03T20:07:13.372Z,3.10
2019-04-03T20:12:24.485Z,3.33
2019-04-03T20:17:34.751Z,2.77
2019-04-03T20:22:42.411Z,2.07
2019-04-03T20:27:51.433Z,2.83
2019-04-03T20:33:00.558Z,2.50
2019-04-03T20:38:07.410Z,6.80
2019-04-03T20:43:13.048Z,3.50
2019-04-03T20:48:18.703Z,4.10
2019-04-03T20:53:31.491Z,3.97
2019-04-03T20:58:39.952Z,6.80
2019-04-03T21:03:44.310Z,4.90
2019-04-03T21:08:49.938Z,7.10
2019-04-03T21:13:54.936Z,8.17
2019-04-03T21:19:00.154Z,8.33
2019-04-03T21:24:05.632Z,6.90
2019-04-03T21:29:10.997Z,6.40
2019-04-03T21:34:16.157Z,8.20
2019-04-03T21:39:22.262Z,11.83
2019-04-03T21:44:27.649Z,16.53
2019-04-03T21:49:32.602Z,20.13
2019-04-03T21:54:40.268Z,21.80
2019-04-03T21:59:51.461Z,18.87
2019-04-03T22:04:57.943Z,15.40
2019-04-03T22:10:09.371Z,17.47
2019-04-03T22:15:15.778Z,21.33
2019-04-03T22:20:20.964Z,13.97
2019-04-03T22:25:25.926Z,9.17
2019-04-03T22:30:31.160Z,8.00
2019-04-03T22:35:36.306Z,8.17
2019-04-03T22:40:41.932Z,8.87
2019-04-03T22:45:46.926Z,8.80
2019-04-03T22:50:51.853Z,8.90
2019-04-03T22:55:56.715Z,9.60
2019-04-03T23:01:01.077Z,10.93
2019-04-03T23:06:06.185Z,13.67
2019-04-03T23:11:10.367Z,11.83
2019-04-03T23:16:16.264Z,14.60
2019-04-03T23:21:23.507Z,14.83
2019-04-03T23:26:26.673Z,17.40
2019-04-03T23:31:30.786Z,19.03
2019-04-03T23:36:34.809Z,18.47
2019-04-03T23:41:38.967Z,19.50
2019-04-03T23:46:45.503Z,19.80
2019-04-03T23:51:50.999Z,18.13
2019-04-03T23:56:56.252Z,21.60
